createdAt,value
2022-11-25T00:02:12.307Z,98576.38
2022-11-25T00:07:14.219Z,98580.11
2022-11-25T00:12:22.582Z,98588.84
2022-11-25T00:17:24.564Z,98592.96
2022-11-25T00:22:26.519Z,98596.52
2022-11-25T00:27:28.390Z,98592.91
2022-11-25T00:32:32.930Z,98592.14
2022-11-25T00:37:34.790Z,98593.65
2022-11-25T00:42:58.259Z,98594.75
2022-11-25T00:48:06.694Z,98598.31
2022-11-25T00:53:08.740Z,98602.14
2022-11-25T00:58:10.620Z,98599.66
2022-11-25T01:03:13.695Z,98605.86
2022-11-25T01:08:15.619Z,98607.55
2022-11-25T01:13:17.449Z,98606.60
2022-11-25T01:18:19.329Z,98607.34
2022-11-25T01:23:21.221Z,98605.95
2022-11-25T01:28:23.197Z,98607.45
2022-11-25T01:33:28.815Z,98606.90
2022-11-25T01:38:34.820Z,98602.45
2022-11-25T01:43:37.304Z,98602.91
2022-11-25T01:48:46.587Z,98609.69
2022-11-25T01:53:49.348Z,98609.66
2022-11-25T01:58:52.178Z,98613.40
2022-11-25T02:03:57.503Z,98613.54
2022-11-25T02:09:04.956Z,98613.80
2022-11-25T02:14:08.550Z,98614.23
2022-11-25T02:19:22.429Z,98613.02
2022-11-25T02:24:39.199Z,98616.04
2022-11-25T02:29:43.780Z,98620.64
2022-11-25T02:34:49.769Z,98619.19
2022-11-25T02:39:53.539Z,98616.05
2022-11-25T02:44:55.359Z,98617.61
2022-11-25T02:49:59.196Z,98619.80
2022-11-25T02:55:01.088Z,98622.59
2022-11-25T03:00:05.105Z,98623.58
2022-11-25T03:05:07.241Z,98626.80
2022-11-25T03:10:09.492Z,98629.48
2022-11-25T03:15:12.360Z,98632.80
2022-11-25T03:20:15.359Z,98634.78
2022-11-25T03:25:17.433Z,98633.14
2022-11-25T03:30:22.320Z,98633.30
2022-11-25T03:35:25.289Z,98640.64
2022-11-25T03:40:28.358Z,98645.30
2022-11-25T03:45:30.325Z,98647.62
2022-11-25T03:50:33.795Z,98647.37
2022-11-25T03:55:35.796Z,98648.69
2022-11-25T04:00:39.650Z,98646.63
2022-11-25T04:05:42.085Z,98652.05
2022-11-25T04:10:44.011Z,98648.11
2022-11-25T04:15:47.503Z,98648.66
2022-11-25T04:20:50.065Z,98650.19
2022-11-25T04:25:52.327Z,98651.52
2022-11-25T04:30:58.942Z,98652.11
2022-11-25T04:36:00.950Z,98654.15
2022-11-25T04:41:02.992Z,98656.04
2022-11-25T04:46:15.402Z,98664.77
2022-11-25T04:51:20.357Z,98661.04
2022-11-25T04:56:25.301Z,98664.48
2022-11-25T05:01:28.568Z,98669.31
2022-11-25T05:06:36.926Z,98682.01
2022-11-25T05:11:39.164Z,98693.30
2022-11-25T05:16:41.121Z,98691.83
2022-11-25T05:21:44.267Z,98699.15
2022-11-25T05:26:46.795Z,98701.65
2022-11-25T05:31:49.031Z,98702.21
2022-11-25T05:36:52.066Z,98708.37
2022-11-25T05:41:54.575Z,98708.23
2022-11-25T05:46:56.483Z,98711.86
2022-11-25T05:51:58.951Z,98713.24
2022-11-25T05:57:01.202Z,98716.16
2022-11-25T06:02:20.778Z,98716.41
2022-11-25T06:07:22.864Z,98715.83
2022-11-25T06:12:24.848Z,98723.11
2022-11-25T06:17:26.741Z,98729.42
2022-11-25T06:22:37.548Z,98730.58
2022-11-25T06:28:04.954Z,98733.61
2022-11-25T06:33:01.447Z,98730.52
2022-11-25T06:38:03.519Z,98733.15
2022-11-25T06:43:05.492Z,98735.45
2022-11-25T06:48:07.305Z,98741.89
2022-11-25T06:53:09.143Z,98748.88
2022-11-25T06:58:34.455Z,98747.88
2022-11-25T07:03:33.068Z,98752.17
2022-11-25T07:08:34.996Z,98760.23
2022-11-25T07:13:36.943Z,98762.22
2022-11-25T07:18:39.712Z,98760.64
2022-11-25T07:23:43.141Z,98771.77
2022-11-25T07:28:45.607Z,98777.31
2022-11-25T07:33:47.640Z,98776.77
2022-11-25T07:38:49.920Z,98775.41
2022-11-25T07:43:54.617Z,98778.80
2022-11-25T07:49:00.670Z,98781.36
2022-11-25T07:54:05.558Z,98784.23
2022-11-25T07:59:11.347Z,98785.28
2022-11-25T08:04:19.859Z,98789.88
2022-11-25T08:09:23.877Z,98794.36
2022-11-25T08:14:26.686Z,98794.59
2022-11-25T08:19:31.598Z,98793.77
2022-11-25T08:24:33.478Z,98798.48
2022-11-25T08:29:35.778Z,98805.45
2022-11-25T08:34:37.952Z,98811.92
2022-11-25T08:39:56.438Z,98812.52
2022-11-25T08:44:58.588Z,98813.03
2022-11-25T08:50:00.468Z,98813.33
2022-11-25T08:55:02.308Z,98812.28
2022-11-25T09:00:08.292Z,98816.70
2022-11-25T09:05:14.252Z,98818.71
2022-11-25T09:10:17.875Z,98820.89
2022-11-25T09:15:19.759Z,98830.79
2022-11-25T09:20:21.754Z,98834.29
2022-11-25T09:25:23.713Z,98836.64
2022-11-25T09:30:26.551Z,98833.66
2022-11-25T09:35:28.666Z,98831.87
2022-11-25T09:40:42.400Z,98824.93
2022-11-25T09:46:38.660Z,98828.10
2022-11-25T09:51:56.763Z,98831.94
2022-11-25T09:57:09.205Z,98826.42
2022-11-25T10:02:20.479Z,98830.67
2022-11-25T10:07:35.028Z,98836.45
2022-11-25T10:12:43.620Z,98840.49
2022-11-25T10:17:51.635Z,98838.10
2022-11-25T10:23:11.958Z,98840.20
2022-11-25T10:28:23.350Z,98840.05
2022-11-25T10:33:29.032Z,98843.37
2022-11-25T10:38:39.857Z,98835.10
2022-11-25T10:43:43.190Z,98836.98
2022-11-25T10:49:00.605Z,98838.85
2022-11-25T10:54:09.236Z,98841.13
2022-11-25T10:59:35.898Z,98841.63
2022-11-25T11:05:09.520Z,98846.98
2022-11-25T11:10:14.422Z,98846.77
2022-11-25T11:15:23.185Z,98846.84
2022-11-25T11:20:30.411Z,98845.86
2022-11-25T11:25:35.625Z,98843.48
2022-11-25T11:30:37.499Z,98843.05
2022-11-25T11:35:52.826Z,98839.65
2022-11-25T11:41:20.084Z,98839.52
2022-11-25T11:46:42.047Z,98842.67
2022-11-25T11:51:50.934Z,98835.38
2022-11-25T11:57:14.868Z,98845.09
2022-11-25T12:02:35.544Z,98845.30
2022-11-25T12:08:14.862Z,98839.74
2022-11-25T12:13:19.472Z,98846.48
2022-11-25T12:18:49.905Z,98846.64
2022-11-25T12:24:04.484Z,98849.79
2022-11-25T12:29:12.186Z,98849.84
2022-11-25T12:34:21.690Z,98847.02
2022-11-25T12:39:40.736Z,98850.63
2022-11-25T12:44:59.467Z,98848.62
2022-11-25T12:50:01.888Z,98845.14
2022-11-25T12:55:13.779Z,98847.66
2022-11-25T13:06:10.751Z,98852.77
2022-11-25T13:11:27.849Z,98855.00
2022-11-25T13:16:32.080Z,98856.02
2022-11-25T13:21:34.496Z,98865.12
2022-11-25T13:26:48.560Z,98864.59
2022-11-25T13:31:59.417Z,98862.07
2022-11-25T13:37:22.910Z,98861.80
2022-11-25T13:42:26.813Z,98866.73
2022-11-25T13:47:28.605Z,98868.47
2022-11-25T13:52:41.495Z,98867.25
2022-11-25T13:58:04.175Z,98866.69
2022-11-25T14:03:18.475Z,98868.01
2022-11-25T14:08:32.687Z,98870.93
2022-11-25T14:13:40.420Z,98871.80
2022-11-25T14:19:28.497Z,98873.24
2022-11-25T14:24:28.133Z,98874.19
2022-11-25T14:29:32.999Z,98877.70
2022-11-25T14:34:45.354Z,98883.00
2022-11-25T14:40:01.628Z,98881.60
2022-11-25T14:45:04.029Z,98889.75
2022-11-25T14:55:37.178Z,98890.64
2022-11-25T15:01:10.196Z,98888.13
2022-11-25T15:06:14.086Z,98890.24
2022-11-25T15:11:22.777Z,98885.23
2022-11-25T15:16:55.009Z,98887.83
2022-11-25T15:22:22.531Z,98894.94
2022-11-25T15:27:27.953Z,98895.03
2022-11-25T15:32:38.014Z,98899.70
2022-11-25T15:37:39.813Z,98902.92
2022-11-25T15:42:42.407Z,98908.02
2022-11-25T15:47:45.084Z,98903.73
2022-11-25T15:52:51.104Z,98902.98
2022-11-25T15:57:54.429Z,98906.32
2022-11-25T16:02:58.310Z,98910.95
2022-11-25T16:08:32.498Z,98914.52
2022-11-25T16:13:36.631Z,98915.92
2022-11-25T16:18:41.621Z,98920.73
2022-11-25T16:24:12.796Z,98923.44
2022-11-25T16:29:22.590Z,98926.16
2022-11-25T16:34:24.403Z,98928.75
2022-11-25T16:39:26.282Z,98929.31
2022-11-25T16:44:28.678Z,98930.98
2022-11-25T16:49:31.518Z,98931.23
2022-11-25T16:54:34.073Z,98932.05
2022-11-25T16:59:40.102Z,98927.30
2022-11-25T17:04:42.047Z,98935.23
2022-11-25T17:09:45.092Z,98940.48
2022-11-25T17:14:48.296Z,98955.13
2022-11-25T17:19:50.304Z,98955.95
2022-11-25T17:24:52.814Z,98950.86
2022-11-25T17:29:56.587Z,98953.64
2022-11-25T17:34:58.388Z,98953.63
2022-11-25T17:40:00.236Z,98954.16
2022-11-25T17:45:02.175Z,98957.68
2022-11-25T17:50:21.462Z,98965.26
2022-11-25T17:55:23.302Z,98963.05
2022-11-25T18:00:25.449Z,98968.38
2022-11-25T18:05:28.635Z,98971.63
2022-11-25T18:10:30.641Z,98979.34
2022-11-25T18:15:34.186Z,98985.74
2022-11-25T18:20:35.995Z,98985.31
2022-11-25T18:25:40.432Z,98991.39
2022-11-25T18:30:42.879Z,98993.45
2022-11-25T18:35:46.451Z,98999.45
2022-11-25T18:40:53.259Z,99001.31
2022-11-25T18:45:55.958Z,99007.30
2022-11-25T18:50:57.833Z,99007.05
2022-11-25T18:55:59.957Z,99005.90
2022-11-25T19:01:04.791Z,99001.94
2022-11-25T19:06:07.212Z,99005.29
2022-11-25T19:11:19.267Z,99010.71
2022-11-25T19:16:22.774Z,99012.92
2022-11-25T19:21:24.748Z,99010.95
2022-11-25T19:26:30.391Z,99012.91
2022-11-25T19:31:33.505Z,99015.67
2022-11-25T19:36:37.739Z,99020.38
2022-11-25T19:41:39.602Z,99024.05
2022-11-25T19:47:13.660Z,99027.36
2022-11-25T19:52:21.453Z,99032.63
2022-11-25T19:57:25.267Z,99033.52
2022-11-25T20:02:27.261Z,99038.75
2022-11-25T20:07:31.249Z,99040.60
2022-11-25T20:12:33.219Z,99045.06
2022-11-25T20:17:37.650Z,99046.77
2022-11-25T20:22:43.631Z,99050.95
2022-11-25T20:27:45.460Z,99052.11
2022-11-25T20:32:47.359Z,99054.01
2022-11-25T20:37:58.062Z,99059.14
2022-11-25T20:43:00.517Z,99066.95
2022-11-25T20:48:02.442Z,99065.82
2022-11-25T20:53:04.385Z,99068.32
2022-11-25T20:58:19.273Z,99069.02
2022-11-25T21:03:21.501Z,99065.91
2022-11-25T21:08:25.974Z,99065.03
2022-11-25T21:13:30.133Z,99077.19
2022-11-25T21:18:31.961Z,99072.71
2022-11-25T21:23:36.591Z,99082.39
2022-11-25T21:28:44.157Z,99081.13
2022-11-25T21:33:47.257Z,99081.42
2022-11-25T21:38:52.863Z,99084.46
2022-11-25T21:43:54.865Z,99086.63
2022-11-25T21:48:56.719Z,99085.89
2022-11-25T21:53:58.528Z,99097.04
2022-11-25T21:59:05.633Z,99095.30
2022-11-25T22:04:13.067Z,99102.00
2022-11-25T22:09:19.281Z,99104.63
2022-11-25T22:14:28.797Z,99112.80
2022-11-25T22:19:31.488Z,99120.84
2022-11-25T22:24:33.929Z,99126.77
2022-11-25T22:29:36.774Z,99133.06
2022-11-25T22:34:39.683Z,99141.31
2022-11-25T22:39:41.974Z,99143.42
2022-11-25T22:44:47.031Z,99148.67
2022-11-25T22:49:49.850Z,99151.34
2022-11-25T22:54:51.802Z,99156.73
2022-11-25T22:59:53.620Z,99159.52
2022-11-25T23:04:56.662Z,99159.66
2022-11-25T23:09:58.478Z,99160.19
2022-11-25T23:15:00.269Z,99164.41
2022-11-25T23:20:02.174Z,99162.63
2022-11-25T23:25:12.159Z,99161.09
2022-11-25T23:30:19.631Z,99162.34
2022-11-25T23:35:36.348Z,99164.46
2022-11-25T23:40:38.990Z,99168.13
2022-11-25T23:45:52.615Z,99164.41
2022-11-25T23:50:57.050Z,99166.13
2022-11-25T23:55:58.995Z,99169.52
